Liberty Island — HPUY — position and weather

sailwx.info

Track history (hours):
 
Tides and Currents Weather Stations Pressure Air Temp Water Temp Dewpoint Dewpoint Depression Visibility Wind Speed Wind Dir Waves Ship Positions

Liberty Island

Last reported at 2015-Apr-12 00:06 UTC. Time now 2015-Apr-19 19:08 UTC.
Position N 27°33' W 079°14'.

Length 178 m; draft 10.5 m.

Type: Cargo ship. MMSI: 355886000.

Date/timePositionNaut miles runAvg speedWind from/ knotsBaromVisibWave heightAir tempDewpointWater temp
2015-Apr-12 00:06N 27°33' W 079°14'813.0
2015-Apr-11 23:31N 27°25' W 079°15'1313.1
2015-Apr-11 22:31N 27°12' W 079°16'1413.0
2015-Apr-11 21:27N 26°59' W 079°19'2813.7
2015-Apr-11 19:25N 26°31' W 079°23'1214.0
2015-Apr-11 18:33N 26°19' W 079°25'1413.9
2015-Apr-11 17:33N 26°05' W 079°26'1514.3
2015-Apr-11 16:32N 25°51' W 079°28'  
2015-Apr-07 23:20N 29°24' W 094°49'911.0
2015-Apr-07 22:33N 29°32' W 094°54'1010.1
2015-Apr-07 21:33N 29°41' W 094°59'5 5.4
2015-Apr-07 20:34N 29°45' W 095°04'5 5.2
2015-Apr-07 19:34N 29°45' W 095°10'0 0.3
2015-Apr-07 18:09N 29°45' W 095°10'0 0.0
2015-Apr-07 17:21N 29°45' W 095°10'0 0.0
2015-Apr-07 16:33N 29°45' W 095°10'0 0.0
2015-Apr-07 15:33N 29°45' W 095°10'0 0.0
2015-Apr-07 14:33N 29°45' W 095°10'0 0.0
2015-Apr-07 13:33N 29°45' W 095°10'0 0.0
2015-Apr-07 12:33N 29°45' W 095°10'0 0.0
2015-Apr-07 11:33N 29°45' W 095°10'0 0.0
2015-Apr-07 10:33N 29°45' W 095°10'0 0.0
2015-Apr-07 09:33N 29°45' W 095°10'0 0.0
2015-Apr-07 08:33N 29°45' W 095°10'0 0.0
2015-Apr-07 07:33N 29°45' W 095°10'0 0.0
2015-Apr-07 06:33N 29°45' W 095°10'1 1.5
2015-Apr-07 05:33N 29°44' W 095°09'0 0.1
2015-Apr-07 04:33N 29°44' W 095°09'0 0.0
2015-Apr-07 03:33N 29°44' W 095°09'0 0.0
2015-Apr-07 02:33N 29°44' W 095°09'0 0.0
2015-Apr-07 01:33N 29°44' W 095°09'0 0.0
2015-Apr-07 00:33N 29°44' W 095°09'0 0.0
2015-Apr-06 23:33N 29°44' W 095°09'0 0.0
2015-Apr-06 22:33N 29°44' W 095°09'0 0.0
2015-Apr-06 21:33N 29°44' W 095°09'0 0.0
2015-Apr-06 20:33N 29°44' W 095°09'0 0.0
2015-Apr-06 19:33N 29°44' W 095°09'0 0.0
2015-Apr-06 18:33N 29°44' W 095°09'0 0.0
2015-Apr-06 17:33N 29°44' W 095°09'0 0.0
2015-Apr-06 16:33N 29°44' W 095°09'0 0.0
2015-Apr-06 15:33N 29°44' W 095°09'0 0.0
2015-Apr-06 14:33N 29°44' W 095°09'0 0.0
2015-Apr-06 13:30N 29°44' W 095°09'0 0.0
2015-Apr-06 12:33N 29°44' W 095°09'0 0.0
2015-Apr-06 11:33N 29°44' W 095°09'0 0.0
2015-Apr-06 10:33N 29°44' W 095°09'0 0.2
2015-Apr-06 09:33N 29°44' W 095°08'4 4.1
2015-Apr-06 08:33N 29°45' W 095°04'8 8.4
2015-Apr-06 07:33N 29°38' W 094°58'1212.2
2015-Apr-06 06:33N 29°28' W 094°51'256 7.4
2015-Apr-04 20:12N 29°53' W 089°58'3 4.0
2015-Apr-04 19:31N 29°56' W 089°59'9 9.0
2015-Apr-04 18:31N 29°57' W 090°09'  
Track history (hours):
 
Tides and Currents Weather Stations Pressure Air Temp Water Temp Dewpoint Dewpoint Depression Visibility Wind Speed Wind Dir Waves Ship Positions

Liberty Island

Last reported at 2015-Apr-12 00:06 UTC. Time now 2015-Apr-19 19:08 UTC.
Position N 27°33' W 079°14'.

Length 178 m; draft 10.5 m.

Type: Cargo ship. MMSI: 355886000.

Date/timePositionNaut miles runAvg speedWind from/ knotsBaromVisibWave heightAir tempDewpointWater temp
2015-Apr-12 00:06N 27°33' W 079°14'813.0
2015-Apr-11 23:31N 27°25' W 079°15'1313.1
2015-Apr-11 22:31N 27°12' W 079°16'1413.0
2015-Apr-11 21:27N 26°59' W 079°19'2813.7
2015-Apr-11 19:25N 26°31' W 079°23'1214.0
2015-Apr-11 18:33N 26°19' W 079°25'1413.9
2015-Apr-11 17:33N 26°05' W 079°26'1514.3
2015-Apr-11 16:32N 25°51' W 079°28'  
2015-Apr-07 23:20N 29°24' W 094°49'911.0
2015-Apr-07 22:33N 29°32' W 094°54'1010.1
2015-Apr-07 21:33N 29°41' W 094°59'5 5.4
2015-Apr-07 20:34N 29°45' W 095°04'5 5.2
2015-Apr-07 19:34N 29°45' W 095°10'0 0.3
2015-Apr-07 18:09N 29°45' W 095°10'0 0.0
2015-Apr-07 17:21N 29°45' W 095°10'0 0.0
2015-Apr-07 16:33N 29°45' W 095°10'0 0.0
2015-Apr-07 15:33N 29°45' W 095°10'0 0.0
2015-Apr-07 14:33N 29°45' W 095°10'0 0.0
2015-Apr-07 13:33N 29°45' W 095°10'0 0.0
2015-Apr-07 12:33N 29°45' W 095°10'0 0.0
2015-Apr-07 11:33N 29°45' W 095°10'0 0.0
2015-Apr-07 10:33N 29°45' W 095°10'0 0.0
2015-Apr-07 09:33N 29°45' W 095°10'0 0.0
2015-Apr-07 08:33N 29°45' W 095°10'0 0.0
2015-Apr-07 07:33N 29°45' W 095°10'0 0.0
2015-Apr-07 06:33N 29°45' W 095°10'1 1.5
2015-Apr-07 05:33N 29°44' W 095°09'0 0.1
2015-Apr-07 04:33N 29°44' W 095°09'0 0.0
2015-Apr-07 03:33N 29°44' W 095°09'0 0.0
2015-Apr-07 02:33N 29°44' W 095°09'0 0.0
2015-Apr-07 01:33N 29°44' W 095°09'0 0.0
2015-Apr-07 00:33N 29°44' W 095°09'0 0.0
2015-Apr-06 23:33N 29°44' W 095°09'0 0.0
2015-Apr-06 22:33N 29°44' W 095°09'0 0.0
2015-Apr-06 21:33N 29°44' W 095°09'0 0.0
2015-Apr-06 20:33N 29°44' W 095°09'0 0.0
2015-Apr-06 19:33N 29°44' W 095°09'0 0.0
2015-Apr-06 18:33N 29°44' W 095°09'0 0.0
2015-Apr-06 17:33N 29°44' W 095°09'0 0.0
2015-Apr-06 16:33N 29°44' W 095°09'0 0.0
2015-Apr-06 15:33N 29°44' W 095°09'0 0.0
2015-Apr-06 14:33N 29°44' W 095°09'0 0.0
2015-Apr-06 13:30N 29°44' W 095°09'0 0.0
2015-Apr-06 12:33N 29°44' W 095°09'0 0.0
2015-Apr-06 11:33N 29°44' W 095°09'0 0.0
2015-Apr-06 10:33N 29°44' W 095°09'0 0.2
2015-Apr-06 09:33N 29°44' W 095°08'4 4.1
2015-Apr-06 08:33N 29°45' W 095°04'8 8.4
2015-Apr-06 07:33N 29°38' W 094°58'1212.2
2015-Apr-06 06:33N 29°28' W 094°51'256 7.4
2015-Apr-04 20:12N 29°53' W 089°58'3 4.0
2015-Apr-04 19:31N 29°56' W 089°59'9 9.0
2015-Apr-04 18:31N 29°57' W 090°09'  

Dump ship's entire track history